createdAt,value
2023-02-14T00:00:56.704Z,29.80
2023-02-14T00:01:56.226Z,25.70
2023-02-14T00:02:56.238Z,27.00
2023-02-14T00:03:56.473Z,31.40
2023-02-14T00:04:56.220Z,29.40
2023-02-14T00:05:56.214Z,28.70
2023-02-14T00:06:56.199Z,26.50
2023-02-14T00:07:56.197Z,27.20
2023-02-14T00:08:56.130Z,29.30
2023-02-14T00:09:56.134Z,30.50
2023-02-14T00:10:56.262Z,32.00
2023-02-14T00:11:56.105Z,32.90
2023-02-14T00:12:56.152Z,28.90
2023-02-14T00:13:56.092Z,29.30
2023-02-14T00:14:56.094Z,30.50
2023-02-14T00:15:56.130Z,29.80
2023-02-14T00:16:56.137Z,32.10
2023-02-14T00:17:56.064Z,27.80
2023-02-14T00:18:56.202Z,27.40
2023-02-14T00:19:56.063Z,27.90
2023-02-14T00:20:56.305Z,30.50
2023-02-14T00:21:56.048Z,25.70
2023-02-14T00:22:56.027Z,28.20
2023-02-14T00:23:56.036Z,25.60
2023-02-14T00:24:56.002Z,29.60
2023-02-14T00:26:27.912Z,29.20
2023-02-14T00:26:56.034Z,28.50
2023-02-14T00:27:55.989Z,29.80
2023-02-14T00:28:55.982Z,25.30
2023-02-14T00:29:56.039Z,29.50
2023-02-14T00:30:56.036Z,31.50
2023-02-14T00:31:56.011Z,35.30
2023-02-14T00:32:56.015Z,46.50
2023-02-14T00:33:55.940Z,64.30
2023-02-14T00:34:55.966Z,114.50
2023-02-14T00:35:55.952Z,110.00
2023-02-14T00:36:55.998Z,82.20
2023-02-14T00:37:55.930Z,128.30
2023-02-14T00:38:55.910Z,202.70
2023-02-14T00:39:55.897Z,151.90
2023-02-14T00:40:55.992Z,165.60
2023-02-14T00:41:55.907Z,147.70
2023-02-14T00:42:55.883Z,72.10
2023-02-14T00:43:55.890Z,56.30
2023-02-14T00:44:55.891Z,50.60
2023-02-14T00:45:55.967Z,43.20
2023-02-14T00:46:55.836Z,45.60
2023-02-14T00:47:55.836Z,38.00
2023-02-14T00:48:55.851Z,40.30
2023-02-14T00:49:56.544Z,37.70
2023-02-14T00:50:55.848Z,47.30
2023-02-14T00:51:55.813Z,47.60
2023-02-14T00:52:55.805Z,50.60
2023-02-14T00:53:55.827Z,47.70
2023-02-14T00:54:55.793Z,42.80
2023-02-14T00:55:55.777Z,40.30
2023-02-14T00:56:55.794Z,46.30
2023-02-14T00:57:55.767Z,46.00
2023-02-14T00:58:55.752Z,45.20
2023-02-14T00:59:55.739Z,45.20
2023-02-14T01:00:55.782Z,44.80
2023-02-14T01:01:55.753Z,44.50
2023-02-14T01:02:55.843Z,43.90
2023-02-14T01:03:55.721Z,36.70
2023-02-14T01:04:55.736Z,38.80
2023-02-14T01:05:55.700Z,38.70
2023-02-14T01:06:55.705Z,38.40
2023-02-14T01:07:55.715Z,36.30
2023-02-14T01:08:55.696Z,34.10
2023-02-14T01:09:55.749Z,36.40
2023-02-14T01:10:55.674Z,39.60
2023-02-14T01:11:55.685Z,38.30
2023-02-14T01:12:55.673Z,42.70
2023-02-14T01:13:55.648Z,38.00
2023-02-14T01:14:55.627Z,40.80
2023-02-14T01:15:55.630Z,39.10
2023-02-14T01:16:55.746Z,40.50
2023-02-14T01:17:55.609Z,36.80
2023-02-14T01:18:55.625Z,33.00
2023-02-14T01:19:55.644Z,37.60
2023-02-14T01:20:55.624Z,38.90
2023-02-14T01:21:55.581Z,37.10
2023-02-14T01:22:55.580Z,37.70
2023-02-14T01:23:55.648Z,31.90
2023-02-14T01:24:55.557Z,34.10
2023-02-14T01:25:55.559Z,31.80
2023-02-14T01:26:55.534Z,31.90
2023-02-14T01:27:55.559Z,27.00
2023-02-14T01:28:55.535Z,29.00
2023-02-14T01:29:55.621Z,32.20
2023-02-14T01:30:55.570Z,30.10
2023-02-14T01:31:55.594Z,28.90
2023-02-14T01:32:55.527Z,31.70
2023-02-14T01:33:55.472Z,36.90
2023-02-14T01:34:55.479Z,34.10
2023-02-14T01:35:55.484Z,36.30
2023-02-14T01:36:55.465Z,36.30
2023-02-14T01:37:55.474Z,35.30
2023-02-14T01:38:55.459Z,37.60
2023-02-14T01:39:55.442Z,38.70
2023-02-14T01:40:55.450Z,46.10
2023-02-14T01:41:55.417Z,39.10
2023-02-14T01:42:55.446Z,43.00
2023-02-14T01:43:55.409Z,44.30
2023-02-14T01:44:55.405Z,40.60
2023-02-14T01:45:55.455Z,38.30
2023-02-14T01:46:55.421Z,39.90
2023-02-14T01:47:55.404Z,40.00
2023-02-14T01:48:55.398Z,36.30
2023-02-14T01:49:55.375Z,35.40
2023-02-14T01:50:55.381Z,42.10
2023-02-14T01:51:55.405Z,38.60
2023-02-14T01:52:55.369Z,39.20
2023-02-14T01:53:55.354Z,39.80
2023-02-14T01:54:55.336Z,42.20
2023-02-14T01:55:55.335Z,48.30
2023-02-14T01:56:55.377Z,48.20
2023-02-14T01:57:55.315Z,61.60
2023-02-14T01:58:55.312Z,70.90
2023-02-14T01:59:55.306Z,72.80
2023-02-14T02:00:55.331Z,80.10
2023-02-14T02:01:55.431Z,87.40
2023-02-14T02:02:55.347Z,110.90
2023-02-14T02:03:55.267Z,156.90
2023-02-14T02:04:55.295Z,178.00
2023-02-14T02:05:55.271Z,131.10
2023-02-14T02:06:55.239Z,104.00
2023-02-14T02:07:55.256Z,62.10
2023-02-14T02:08:55.236Z,75.00
2023-02-14T02:09:55.237Z,78.60
2023-02-14T02:10:55.220Z,90.10
2023-02-14T02:11:55.273Z,95.90
2023-02-14T02:12:55.237Z,158.50
2023-02-14T02:13:55.187Z,113.60
2023-02-14T02:14:55.204Z,121.40
2023-02-14T02:15:55.190Z,145.10
2023-02-14T02:16:55.241Z,140.80
2023-02-14T02:17:55.145Z,210.20
2023-02-14T02:18:55.164Z,200.40
2023-02-14T02:19:55.218Z,193.00
2023-02-14T02:20:55.160Z,183.10
2023-02-14T02:21:55.138Z,198.50
2023-02-14T02:22:55.147Z,256.00
2023-02-14T02:23:55.129Z,242.80
2023-02-14T02:24:55.114Z,223.70
2023-02-14T02:25:55.162Z,290.40
2023-02-14T02:26:55.089Z,251.50
2023-02-14T02:27:55.092Z,348.70
2023-02-14T02:28:55.091Z,309.40
2023-02-14T02:29:55.129Z,345.70
2023-02-14T02:30:55.240Z,264.10
2023-02-14T02:31:55.177Z,249.50
2023-02-14T02:32:55.040Z,377.60
2023-02-14T02:33:55.059Z,248.50
2023-02-14T02:34:55.053Z,227.00
2023-02-14T02:35:55.033Z,220.60
2023-02-14T02:36:55.041Z,217.70
2023-02-14T02:37:55.019Z,224.50
2023-02-14T02:38:55.013Z,303.00
2023-02-14T02:39:55.006Z,241.70
2023-02-14T02:40:55.011Z,244.30
2023-02-14T02:41:55.051Z,273.90
2023-02-14T02:42:54.980Z,300.70
2023-02-14T02:44:26.876Z,305.00
2023-02-14T02:44:54.984Z,354.80
2023-02-14T02:46:26.962Z,414.40
2023-02-14T02:47:26.896Z,436.40
2023-02-14T02:47:54.942Z,478.60
2023-02-14T02:49:26.847Z,459.40
2023-02-14T02:49:54.936Z,371.50
2023-02-14T02:51:26.826Z,440.70
2023-02-14T02:52:26.833Z,309.10
2023-02-14T02:52:54.921Z,282.30
2023-02-14T02:53:54.897Z,225.10
2023-02-14T02:55:26.786Z,335.60
2023-02-14T02:55:54.906Z,235.30
2023-02-14T02:57:26.801Z,467.90
2023-02-14T02:57:54.875Z,369.10
2023-02-14T02:58:54.856Z,466.50
2023-02-14T02:59:54.859Z,375.20
2023-02-14T03:01:26.807Z,513.90
2023-02-14T03:02:27.783Z,507.00
2023-02-14T03:03:26.747Z,612.40
2023-02-14T03:03:54.825Z,455.30
2023-02-14T03:04:54.958Z,387.80
2023-02-14T03:06:26.721Z,500.40
2023-02-14T03:06:54.809Z,444.90
2023-02-14T03:08:26.693Z,393.70
2023-02-14T03:09:26.728Z,371.50
2023-02-14T03:09:54.799Z,399.90
2023-02-14T03:10:54.777Z,404.10
2023-02-14T03:11:54.794Z,636.40
2023-02-14T03:12:54.777Z,406.00
2023-02-14T03:13:54.776Z,314.40
2023-02-14T03:14:54.760Z,357.30
2023-02-14T03:15:54.836Z,428.60
2023-02-14T03:16:54.726Z,417.70
2023-02-14T03:17:54.723Z,479.00
2023-02-14T03:18:54.715Z,333.70
2023-02-14T03:19:54.732Z,376.60
2023-02-14T03:20:54.727Z,372.60
2023-02-14T03:21:54.705Z,368.60
2023-02-14T03:22:54.685Z,408.70
2023-02-14T03:23:54.679Z,617.70
2023-02-14T03:24:54.669Z,373.20
2023-02-14T03:25:54.700Z,320.90
2023-02-14T03:26:54.653Z,360.90
2023-02-14T03:27:54.654Z,476.10
2023-02-14T03:28:54.665Z,384.50
2023-02-14T03:29:54.665Z,359.50
2023-02-14T03:30:54.742Z,327.60
2023-02-14T03:31:54.690Z,366.80
2023-02-14T03:32:55.058Z,344.10
2023-02-14T03:33:54.608Z,322.50
2023-02-14T03:34:54.604Z,265.50
2023-02-14T03:35:54.601Z,283.60
2023-02-14T03:36:54.609Z,263.40
2023-02-14T03:37:54.631Z,360.00
2023-02-14T03:38:54.584Z,337.80
2023-02-14T03:39:54.557Z,287.00
2023-02-14T03:40:54.571Z,342.90
2023-02-14T03:41:54.562Z,320.50
2023-02-14T03:42:54.562Z,214.40
2023-02-14T03:43:54.535Z,273.10
2023-02-14T03:44:54.569Z,255.00
2023-02-14T03:45:54.535Z,308.50
2023-02-14T03:46:54.569Z,191.30
2023-02-14T04:03:02.733Z,256.00
2023-02-14T04:04:02.682Z,312.30
2023-02-14T04:05:02.782Z,234.10
2023-02-14T04:06:03.877Z,436.80
2023-02-14T04:07:03.796Z,311.10
2023-02-14T04:08:03.800Z,340.10
2023-02-14T04:09:03.802Z,334.50
2023-02-14T04:10:03.821Z,607.70
2023-02-14T04:11:03.784Z,370.20
2023-02-14T04:12:03.773Z,247.10
2023-02-14T04:13:03.760Z,224.90
2023-02-14T04:14:03.755Z,223.10
2023-02-14T04:15:03.746Z,219.50
2023-02-14T04:16:03.839Z,242.20
2023-02-14T04:17:03.738Z,256.20
2023-02-14T04:18:03.713Z,251.20
2023-02-14T04:19:03.706Z,244.00
2023-02-14T04:20:03.729Z,354.60
2023-02-14T04:21:03.760Z,465.90
2023-02-14T04:22:03.772Z,301.10
2023-02-14T04:23:03.770Z,194.30
2023-02-14T04:24:03.684Z,217.10
2023-02-14T04:25:03.688Z,140.80
2023-02-14T04:26:03.689Z,218.70
2023-02-14T04:27:03.654Z,201.70
2023-02-14T04:28:03.646Z,255.40
2023-02-14T04:29:03.638Z,305.00
2023-02-14T04:30:03.698Z,211.30
2023-02-14T04:31:04.072Z,191.50
2023-02-14T04:32:03.783Z,206.60
2023-02-14T04:33:03.626Z,326.30
2023-02-14T04:34:03.602Z,321.00
2023-02-14T04:35:03.621Z,293.30
2023-02-14T04:36:03.597Z,202.30
2023-02-14T04:37:03.590Z,234.50
2023-02-14T04:38:03.597Z,214.80
2023-02-14T04:39:03.589Z,225.60
2023-02-14T04:40:03.552Z,257.60
2023-02-14T04:41:03.574Z,270.60
2023-02-14T04:42:03.575Z,328.50
2023-02-14T04:43:03.526Z,322.20
2023-02-14T04:44:03.527Z,286.80
2023-02-14T04:45:04.436Z,219.90
2023-02-14T04:46:04.522Z,310.80
2023-02-14T04:47:03.538Z,355.70
2023-02-14T04:48:03.504Z,201.70
2023-02-14T04:49:03.527Z,190.80
2023-02-14T04:50:03.497Z,283.30
2023-02-14T04:51:03.484Z,193.70
2023-02-14T04:52:03.468Z,297.00
2023-02-14T04:53:03.487Z,276.70
2023-02-14T04:54:04.441Z,563.20
2023-02-14T04:55:03.437Z,331.70
2023-02-14T04:56:03.452Z,243.70
2023-02-14T04:57:03.440Z,261.10
2023-02-14T04:58:03.468Z,282.50
2023-02-14T04:59:03.506Z,360.00
2023-02-14T05:00:03.413Z,243.70
2023-02-14T05:01:03.696Z,281.00
2023-02-14T05:02:03.590Z,299.80
2023-02-14T05:03:03.413Z,546.30
2023-02-14T05:04:03.376Z,235.90
2023-02-14T05:05:03.353Z,249.70
2023-02-14T05:06:03.389Z,306.10
2023-02-14T05:07:03.353Z,290.90
2023-02-14T05:08:03.343Z,266.40
2023-02-14T05:09:03.339Z,284.30
2023-02-14T05:10:03.340Z,288.00
2023-02-14T05:11:03.349Z,313.60
2023-02-14T05:12:03.448Z,459.60
2023-02-14T05:13:03.315Z,480.90
2023-02-14T05:14:03.295Z,332.20
2023-02-14T05:15:03.319Z,202.50
2023-02-14T05:16:03.323Z,234.30
2023-02-14T05:17:03.280Z,214.30
2023-02-14T05:18:03.280Z,160.90
2023-02-14T05:19:03.257Z,135.60
2023-02-14T05:20:03.276Z,191.80
2023-02-14T05:21:03.273Z,204.70
2023-02-14T05:22:03.232Z,165.10
2023-02-14T05:23:03.230Z,340.80
2023-02-14T05:24:03.222Z,350.40
2023-02-14T05:25:03.239Z,287.80
2023-02-14T05:26:03.201Z,350.00
2023-02-14T05:27:03.232Z,275.30
2023-02-14T05:28:03.183Z,171.80
2023-02-14T05:29:03.188Z,218.90
2023-02-14T05:30:03.333Z,181.40
2023-02-14T05:31:03.755Z,326.70
2023-02-14T05:32:03.195Z,271.00
2023-02-14T05:33:03.160Z,336.30
2023-02-14T05:34:03.132Z,296.50
2023-02-14T05:35:03.141Z,317.90
2023-02-14T05:36:03.148Z,377.30
2023-02-14T05:37:03.120Z,300.20
2023-02-14T05:38:03.148Z,227.80
2023-02-14T05:39:03.089Z,415.10
2023-02-14T05:40:03.134Z,245.20
2023-02-14T05:41:03.103Z,178.30
2023-02-14T05:42:04.146Z,255.90
2023-02-14T05:43:03.163Z,237.60
2023-02-14T05:44:03.055Z,275.90
2023-02-14T05:45:03.093Z,217.90
2023-02-14T05:46:03.116Z,147.70
2023-02-14T05:47:03.078Z,239.20
2023-02-14T05:48:03.058Z,317.30
2023-02-14T05:49:03.027Z,175.30
2023-02-14T05:50:03.008Z,233.00
2023-02-14T05:51:03.015Z,177.90
2023-02-14T05:52:03.007Z,181.70
2023-02-14T05:53:03.022Z,188.90
2023-02-14T05:54:02.984Z,206.10
2023-02-14T05:55:02.991Z,345.90
2023-02-14T05:56:02.969Z,483.00
2023-02-14T05:57:02.970Z,192.50
2023-02-14T05:58:02.952Z,245.20
2023-02-14T05:59:02.985Z,380.00
2023-02-14T06:00:02.994Z,297.20
2023-02-14T06:01:03.050Z,162.70
2023-02-14T06:02:03.019Z,301.20
2023-02-14T06:03:02.929Z,255.90
2023-02-14T06:04:03.068Z,438.70
2023-02-14T06:05:02.917Z,205.40
2023-02-14T06:06:02.919Z,411.50
2023-02-14T06:07:02.903Z,220.80
2023-02-14T06:08:02.882Z,282.50
2023-02-14T06:09:02.905Z,247.80
2023-02-14T06:10:02.929Z,203.70
2023-02-14T06:11:02.979Z,214.60
2023-02-14T06:12:02.853Z,286.50
2023-02-14T06:13:02.870Z,239.20
2023-02-14T06:14:02.856Z,322.10
2023-02-14T06:15:02.865Z,368.10
2023-02-14T06:16:02.859Z,463.80
2023-02-14T06:17:02.922Z,430.80
2023-02-14T06:18:02.824Z,421.60
2023-02-14T06:19:02.829Z,361.50
2023-02-14T06:20:02.991Z,339.90
2023-02-14T06:21:02.864Z,222.90
2023-02-14T06:22:02.812Z,178.60
2023-02-14T06:23:02.784Z,303.80
2023-02-14T06:24:02.783Z,225.40
2023-02-14T06:25:03.338Z,245.70
2023-02-14T06:26:34.964Z,211.50
2023-02-14T06:27:02.749Z,255.60
2023-02-14T06:28:02.738Z,401.00
2023-02-14T06:29:02.746Z,235.00
2023-02-14T06:30:02.770Z,188.10
2023-02-14T06:31:03.205Z,159.10
2023-02-14T06:32:02.784Z,142.40
2023-02-14T06:33:02.778Z,157.00
2023-02-14T06:34:02.712Z,182.30
2023-02-14T06:35:02.719Z,198.70
2023-02-14T06:36:02.682Z,150.00
2023-02-14T06:37:02.690Z,208.30
2023-02-14T06:38:02.660Z,192.90
2023-02-14T06:39:02.673Z,176.10
2023-02-14T06:40:02.732Z,231.20
2023-02-14T06:41:02.968Z,244.20
2023-02-14T06:42:03.448Z,165.10
2023-02-14T06:43:02.634Z,189.80
2023-02-14T06:44:02.597Z,225.40
2023-02-14T06:45:03.673Z,255.00
2023-02-14T06:46:02.653Z,346.50
2023-02-14T06:47:02.597Z,385.40
2023-02-14T06:48:02.607Z,306.60
2023-02-14T06:49:02.733Z,414.90
2023-02-14T06:50:02.586Z,387.70
2023-02-14T06:51:02.852Z,293.40
2023-02-14T06:52:03.576Z,280.80
2023-02-14T06:53:02.545Z,229.50
2023-02-14T06:54:02.550Z,173.70
2023-02-14T06:55:02.528Z,186.60
2023-02-14T06:56:02.535Z,213.30
2023-02-14T06:57:02.512Z,183.60
2023-02-14T06:58:02.510Z,219.60
2023-02-14T06:59:03.498Z,277.60
2023-02-14T07:00:02.486Z,189.20
2023-02-14T07:01:02.843Z,332.50
2023-02-14T07:02:02.481Z,215.40
2023-02-14T07:03:02.539Z,236.40
2023-02-14T07:04:02.470Z,197.10
2023-02-14T07:05:02.464Z,197.00
2023-02-14T07:06:02.436Z,268.20
2023-02-14T07:07:02.430Z,179.60
2023-02-14T07:08:02.444Z,263.40
2023-02-14T07:09:02.423Z,264.20
2023-02-14T07:10:02.423Z,389.20
2023-02-14T07:11:02.951Z,213.30
2023-02-14T07:12:02.746Z,258.90
2023-02-14T07:13:02.449Z,297.80
2023-02-14T07:14:02.397Z,260.80
2023-02-14T07:15:03.386Z,239.40
2023-02-14T07:16:02.459Z,269.00
2023-02-14T07:17:02.389Z,248.40
2023-02-14T07:18:02.418Z,260.50
2023-02-14T07:19:02.347Z,232.70
2023-02-14T07:20:02.397Z,221.80
2023-02-14T07:21:02.978Z,196.30
2023-02-14T07:22:02.328Z,193.50
2023-02-14T07:23:02.348Z,182.20
2023-02-14T07:24:02.321Z,156.50
2023-02-14T07:25:02.410Z,257.20
2023-02-14T07:26:02.346Z,277.40
2023-02-14T07:27:02.296Z,244.80
2023-02-14T07:28:02.988Z,257.00
2023-02-14T07:29:02.274Z,262.20
2023-02-14T07:30:02.353Z,202.50
2023-02-14T07:31:02.849Z,211.60
2023-02-14T07:32:02.395Z,222.10
2023-02-14T07:33:02.407Z,264.90
2023-02-14T07:34:02.235Z,216.90
2023-02-14T07:35:02.242Z,236.50
2023-02-14T07:36:02.215Z,216.40
2023-02-14T07:37:02.393Z,224.20
2023-02-14T07:38:02.280Z,192.90
2023-02-14T07:39:02.216Z,243.50
2023-02-14T07:40:02.241Z,190.60
2023-02-14T07:41:02.379Z,195.50
2023-02-14T07:42:03.253Z,184.90
2023-02-14T07:43:02.175Z,234.70
2023-02-14T07:44:02.168Z,250.70
2023-02-14T07:45:12.582Z,372.70
2023-02-14T07:46:04.245Z,188.10
2023-02-14T07:47:02.197Z,199.80
2023-02-14T07:48:02.157Z,209.80
2023-02-14T07:49:02.179Z,263.40
2023-02-14T07:50:02.153Z,269.90
2023-02-14T07:51:02.711Z,428.60
2023-02-14T07:52:02.084Z,247.70
2023-02-14T07:53:02.167Z,271.90
2023-02-14T07:54:02.113Z,240.10
2023-02-14T07:55:02.112Z,282.20
2023-02-14T07:56:02.080Z,248.80
2023-02-14T07:57:02.112Z,244.50
2023-02-14T07:58:02.054Z,293.80
2023-02-14T07:59:02.067Z,250.40
2023-02-14T08:00:02.055Z,301.20
2023-02-14T08:01:02.298Z,288.10
2023-02-14T08:02:02.208Z,328.20
2023-02-14T08:03:02.015Z,280.30
2023-02-14T08:04:01.993Z,344.80
2023-02-14T08:05:02.120Z,222.20
2023-02-14T08:06:02.000Z,246.90
2023-02-14T08:07:01.997Z,286.40
2023-02-14T08:08:01.977Z,226.80
2023-02-14T08:09:01.987Z,242.00
2023-02-14T08:10:01.944Z,245.20
2023-02-14T08:11:02.338Z,222.10
2023-02-14T08:12:01.965Z,328.20
2023-02-14T08:13:01.955Z,278.30
2023-02-14T08:14:01.937Z,157.40
2023-02-14T08:15:01.958Z,187.80
2023-02-14T08:16:01.936Z,356.30
2023-02-14T08:17:01.889Z,324.80
2023-02-14T08:18:02.039Z,236.40
2023-02-14T08:19:01.892Z,290.20
2023-02-14T08:20:01.935Z,315.50
2023-02-14T08:21:02.213Z,447.80
2023-02-14T08:22:01.858Z,269.10
2023-02-14T08:23:01.912Z,284.80
2023-02-14T08:24:01.872Z,609.40
2023-02-14T08:25:01.852Z,389.40
2023-02-14T08:26:01.856Z,215.90
2023-02-14T08:27:01.817Z,238.80
2023-02-14T08:28:01.803Z,374.50
2023-02-14T08:29:01.844Z,310.10
2023-02-14T08:30:02.430Z,209.50
2023-02-14T08:31:02.091Z,138.20
2023-02-14T08:32:01.887Z,126.60
2023-02-14T08:33:01.764Z,195.80
2023-02-14T08:34:01.900Z,165.40
2023-02-14T08:35:01.793Z,124.70
2023-02-14T08:36:01.758Z,161.60
2023-02-14T08:37:01.768Z,273.70
2023-02-14T08:38:01.772Z,167.50
2023-02-14T08:39:01.727Z,163.00
2023-02-14T08:40:01.802Z,340.10
2023-02-14T08:41:04.404Z,205.10
2023-02-14T08:42:01.749Z,132.50
2023-02-14T08:43:01.789Z,223.40
2023-02-14T08:44:01.700Z,105.00
2023-02-14T08:45:01.684Z,137.30
2023-02-14T08:46:02.037Z,110.40
2023-02-14T08:47:01.769Z,92.20
2023-02-14T08:48:02.694Z,107.70
2023-02-14T08:49:01.686Z,166.70
2023-02-14T08:50:01.662Z,105.80
2023-02-14T08:51:01.959Z,86.20
2023-02-14T08:52:01.648Z,113.20
2023-02-14T08:53:02.659Z,113.10
2023-02-14T08:54:01.640Z,154.90
2023-02-14T08:55:01.611Z,109.10
2023-02-14T08:56:01.878Z,128.10
2023-02-14T08:57:01.602Z,125.70
2023-02-14T08:58:01.627Z,159.70
2023-02-14T08:59:01.602Z,176.00
2023-02-14T09:00:01.593Z,149.20
2023-02-14T09:01:01.997Z,141.50
2023-02-14T09:02:01.575Z,136.60
2023-02-14T09:03:01.749Z,152.60
2023-02-14T09:04:01.608Z,152.70
2023-02-14T09:05:01.733Z,147.10
2023-02-14T09:06:01.547Z,94.80
2023-02-14T09:07:01.552Z,140.30
2023-02-14T09:08:01.587Z,155.50
2023-02-14T09:09:02.626Z,120.00
2023-02-14T09:10:02.551Z,151.80
2023-02-14T09:11:01.799Z,139.00
2023-02-14T09:12:01.521Z,156.70
2023-02-14T09:13:01.486Z,129.50
2023-02-14T09:14:01.482Z,140.80
2023-02-14T09:15:02.501Z,67.70
2023-02-14T09:16:01.510Z,97.20
2023-02-14T09:17:01.542Z,98.50
2023-02-14T09:18:01.478Z,207.20
2023-02-14T09:19:01.491Z,198.80
2023-02-14T09:20:01.562Z,134.40
2023-02-14T09:21:01.831Z,136.30
2023-02-14T09:22:01.416Z,272.70
2023-02-14T09:23:01.410Z,192.50
2023-02-14T09:24:01.450Z,165.60
2023-02-14T09:25:01.398Z,73.70
2023-02-14T09:26:01.460Z,120.80
2023-02-14T09:27:01.380Z,83.80
2023-02-14T09:28:01.365Z,126.60
2023-02-14T09:29:01.388Z,152.70
2023-02-14T09:30:01.443Z,99.30
2023-02-14T09:31:01.757Z,188.20
2023-02-14T09:32:01.437Z,80.30
2023-02-14T09:33:01.368Z,88.30
2023-02-14T09:34:01.354Z,84.70
2023-02-14T09:35:01.328Z,122.50
2023-02-14T09:36:01.294Z,77.60
2023-02-14T09:37:01.309Z,56.40
2023-02-14T09:38:01.324Z,54.70
2023-02-14T09:39:01.269Z,58.40
2023-02-14T09:40:01.300Z,84.30
2023-02-14T09:41:01.553Z,77.30
2023-02-14T09:42:01.293Z,62.80
2023-02-14T09:43:02.087Z,46.90
2023-02-14T09:44:02.257Z,47.30
2023-02-14T09:45:02.053Z,76.20
2023-02-14T09:46:01.279Z,77.30
2023-02-14T09:47:01.231Z,74.70
2023-02-14T09:48:01.251Z,66.60
2023-02-14T09:49:01.314Z,48.80
2023-02-14T09:50:01.259Z,47.40
2023-02-14T09:51:01.528Z,53.60
2023-02-14T09:52:01.193Z,64.80
2023-02-14T09:53:01.208Z,49.70
2023-02-14T09:54:01.153Z,92.50
2023-02-14T09:55:01.181Z,99.80
2023-02-14T09:56:01.165Z,68.10
2023-02-14T09:57:01.129Z,63.20
2023-02-14T09:58:01.155Z,60.80
2023-02-14T09:59:01.143Z,58.20
2023-02-14T10:00:01.120Z,44.50
2023-02-14T10:01:01.534Z,39.60
2023-02-14T10:02:01.202Z,41.00
2023-02-14T10:03:01.126Z,57.10
2023-02-14T10:04:01.082Z,81.60
2023-02-14T10:05:01.102Z,50.80
2023-02-14T10:06:01.122Z,41.10
2023-02-14T10:07:01.082Z,48.20
2023-02-14T10:08:01.109Z,37.50
2023-02-14T10:09:01.107Z,42.70
2023-02-14T10:10:01.036Z,40.70
2023-02-14T10:11:01.340Z,33.70
2023-02-14T10:12:01.010Z,36.90
2023-02-14T10:13:01.023Z,36.80
2023-02-14T10:14:01.040Z,37.80
2023-02-14T10:15:01.087Z,54.10
2023-02-14T10:16:00.988Z,39.20
2023-02-14T10:17:01.167Z,52.30
2023-02-14T10:18:00.989Z,39.20
2023-02-14T10:19:01.004Z,32.60
2023-02-14T10:20:00.981Z,38.70
2023-02-14T10:21:01.317Z,36.60
2023-02-14T10:22:00.990Z,40.50
2023-02-14T10:23:00.948Z,39.20
2023-02-14T10:24:00.970Z,38.40
2023-02-14T10:25:00.954Z,40.50
2023-02-14T10:26:00.945Z,46.00
2023-02-14T10:27:00.918Z,38.20
2023-02-14T10:28:00.904Z,30.10
2023-02-14T10:29:00.925Z,35.10
2023-02-14T10:30:00.981Z,36.20
2023-02-14T10:31:01.377Z,35.90
2023-02-14T10:32:00.953Z,37.60
2023-02-14T10:33:00.874Z,40.10
2023-02-14T10:34:00.854Z,34.70
2023-02-14T10:35:00.865Z,40.20
2023-02-14T10:36:00.902Z,40.40
2023-02-14T10:37:00.858Z,37.90
2023-02-14T10:38:00.837Z,34.20
2023-02-14T10:39:00.864Z,41.00
2023-02-14T10:40:00.843Z,30.60
2023-02-14T10:41:01.065Z,27.20
2023-02-14T10:42:00.844Z,32.50
2023-02-14T10:43:00.820Z,31.00
2023-02-14T10:44:00.786Z,28.50
2023-02-14T10:45:00.773Z,33.80
2023-02-14T10:46:00.824Z,26.30
2023-02-14T10:47:00.831Z,32.60
2023-02-14T10:48:00.908Z,27.80
2023-02-14T10:49:00.732Z,24.70
2023-02-14T10:50:00.787Z,24.60
2023-02-14T10:51:01.170Z,21.90
2023-02-14T10:52:00.791Z,23.40
2023-02-14T10:53:00.699Z,20.10
2023-02-14T10:54:00.727Z,24.10
2023-02-14T10:55:00.702Z,25.00
2023-02-14T10:56:00.746Z,21.30
2023-02-14T10:57:00.705Z,19.30
2023-02-14T10:58:00.676Z,27.90
2023-02-14T10:59:00.707Z,25.90
2023-02-14T11:00:00.659Z,24.20
2023-02-14T11:01:01.071Z,38.90
2023-02-14T11:02:00.647Z,76.50
2023-02-14T11:03:00.641Z,29.80
2023-02-14T11:04:00.768Z,62.60
2023-02-14T11:05:00.634Z,30.90
2023-02-14T11:06:00.623Z,32.00
2023-02-14T11:07:00.592Z,25.60
2023-02-14T11:08:00.590Z,27.40
2023-02-14T11:09:00.593Z,35.90
2023-02-14T11:10:00.643Z,33.80
2023-02-14T11:11:00.841Z,30.20
2023-02-14T11:12:00.574Z,28.10
2023-02-14T11:13:00.566Z,33.40
2023-02-14T11:14:00.548Z,28.20
2023-02-14T11:15:00.565Z,27.60
2023-02-14T11:16:00.740Z,76.40
2023-02-14T11:17:00.603Z,26.10
2023-02-14T11:18:00.551Z,31.20
2023-02-14T11:19:00.536Z,28.50
2023-02-14T11:20:00.526Z,30.60
2023-02-14T11:21:00.510Z,23.70
2023-02-14T11:22:00.486Z,29.40
2023-02-14T11:23:00.498Z,24.50
2023-02-14T11:24:00.466Z,28.50
2023-02-14T11:25:01.126Z,27.60
2023-02-14T11:26:00.842Z,25.90
2023-02-14T11:27:00.442Z,25.60
2023-02-14T11:28:00.501Z,25.10
2023-02-14T11:29:00.453Z,42.00
2023-02-14T11:30:00.518Z,33.40
2023-02-14T11:31:00.959Z,26.20
2023-02-14T11:32:00.526Z,28.60
2023-02-14T11:33:00.504Z,30.30
2023-02-14T11:34:02.941Z,33.70
2023-02-14T11:35:00.451Z,31.00
2023-02-14T11:36:00.390Z,28.10
2023-02-14T11:37:00.361Z,35.90
2023-02-14T11:38:00.409Z,37.20
2023-02-14T11:39:00.356Z,25.80
2023-02-14T11:40:00.474Z,38.30
2023-02-14T11:41:00.692Z,37.80
2023-02-14T11:42:00.345Z,28.50
2023-02-14T11:43:13.525Z,38.40
2023-02-14T11:44:02.320Z,44.20
2023-02-14T11:45:00.317Z,32.80
2023-02-14T11:46:00.330Z,30.30
2023-02-14T11:47:00.303Z,28.90
2023-02-14T11:48:00.351Z,34.60
2023-02-14T11:49:00.299Z,27.70
2023-02-14T11:50:00.251Z,24.70
2023-02-14T11:51:00.703Z,31.30
2023-02-14T11:52:00.269Z,25.00
2023-02-14T11:53:00.271Z,25.20
2023-02-14T11:54:00.241Z,24.60
2023-02-14T11:55:00.245Z,25.50
2023-02-14T11:56:00.260Z,27.40
2023-02-14T11:57:00.211Z,28.80
2023-02-14T11:58:00.226Z,25.60
2023-02-14T11:59:00.232Z,26.60
2023-02-14T12:00:00.187Z,29.50
2023-02-14T12:01:00.480Z,26.80
2023-02-14T12:02:00.266Z,26.90
2023-02-14T12:03:00.162Z,28.80
2023-02-14T12:04:00.236Z,27.80
2023-02-14T12:05:00.146Z,43.10
2023-02-14T12:06:01.122Z,32.10
2023-02-14T12:07:00.196Z,35.80
2023-02-14T12:08:00.175Z,49.00
2023-02-14T12:09:00.156Z,56.30
2023-02-14T12:10:00.337Z,31.60
2023-02-14T12:11:01.389Z,26.40
2023-02-14T12:12:00.130Z,29.40
2023-02-14T12:13:00.083Z,24.60
2023-02-14T12:14:00.106Z,24.80
2023-02-14T12:15:00.113Z,26.70
2023-02-14T12:16:00.152Z,27.20
2023-02-14T12:17:00.094Z,24.20
2023-02-14T12:18:00.120Z,22.80
2023-02-14T12:19:00.091Z,23.10
2023-02-14T12:20:00.033Z,28.90
2023-02-14T12:21:00.440Z,41.60
2023-02-14T12:22:00.051Z,25.90
2023-02-14T12:23:00.033Z,26.60
2023-02-14T12:24:00.007Z,25.60
2023-02-14T12:25:00.017Z,25.30
2023-02-14T12:26:31.927Z,24.70
2023-02-14T12:27:00.568Z,23.70
2023-02-14T12:27:59.975Z,26.10
2023-02-14T12:28:59.982Z,24.10
2023-02-14T12:30:00.088Z,23.10
2023-02-14T12:31:00.339Z,26.00
2023-02-14T12:32:00.098Z,25.90
2023-02-14T12:32:59.933Z,27.50
2023-02-14T12:33:59.960Z,22.30
2023-02-14T12:34:59.949Z,29.00
2023-02-14T12:35:59.916Z,24.30
2023-02-14T12:36:59.984Z,25.30
2023-02-14T12:38:04.615Z,26.30
2023-02-14T12:39:01.900Z,24.50
2023-02-14T12:39:59.909Z,27.20
2023-02-14T12:41:00.113Z,26.90
2023-02-14T12:41:59.861Z,31.50
2023-02-14T12:42:59.892Z,37.10
2023-02-14T12:43:59.849Z,32.60
2023-02-14T12:44:59.838Z,31.30
2023-02-14T12:46:00.190Z,24.40
2023-02-14T12:46:59.850Z,27.20
2023-02-14T12:47:59.854Z,31.90
2023-02-14T12:48:59.835Z,30.70
2023-02-14T12:49:59.797Z,28.50
2023-02-14T12:51:00.154Z,28.60
2023-02-14T12:52:00.815Z,24.40
2023-02-14T12:52:59.829Z,27.40
2023-02-14T12:53:59.798Z,35.30